createdAt,value
2017-11-15T20:29:53.891Z,100511.20
2017-11-15T20:32:20.267Z,100502.75
2017-11-15T20:34:46.801Z,100505.97
2017-11-15T20:37:13.215Z,100502.64
2017-11-15T20:39:39.624Z,100495.52
2017-11-15T20:42:06.013Z,100500.77
2017-11-15T20:44:32.402Z,100499.48
2017-11-15T20:46:58.738Z,100496.41
2017-11-15T20:49:25.199Z,100494.73
2017-11-15T20:51:51.964Z,100491.14
2017-11-15T20:54:18.317Z,100494.13
2017-11-15T20:56:44.855Z,100491.91
2017-11-15T20:59:12.032Z,100491.83
2017-11-15T21:01:38.569Z,100491.16
2017-11-15T21:04:05.050Z,100489.70
2017-11-15T21:06:31.695Z,100492.03
2017-11-15T21:08:58.049Z,100493.84
2017-11-15T21:11:24.375Z,100499.53
2017-11-15T21:13:50.806Z,100500.05
2017-11-15T21:16:17.153Z,100501.45
2017-11-15T21:18:43.751Z,100502.44
2017-11-15T21:21:10.182Z,100503.70
2017-11-15T21:23:36.518Z,100502.98
2017-11-15T21:26:02.889Z,100501.72
2017-11-15T21:28:29.278Z,100506.34
2017-11-15T21:30:55.632Z,100510.73
2017-11-15T21:33:22.770Z,100505.10
2017-11-15T21:35:49.157Z,100506.56
2017-11-15T21:38:15.550Z,100510.81
2017-11-15T21:40:41.921Z,100507.42
2017-11-15T21:43:08.302Z,100518.62
2017-11-15T21:45:35.837Z,100515.90
2017-11-15T21:48:02.189Z,100517.42
2017-11-15T21:50:28.553Z,100518.36
2017-11-15T21:52:54.901Z,100521.52
2017-11-15T21:55:21.273Z,100518.69
2017-11-15T21:57:47.903Z,100516.02
2017-11-15T22:00:14.257Z,100521.41
2017-11-15T22:02:40.599Z,100521.39
2017-11-15T22:05:06.980Z,100520.53
2017-11-15T22:07:33.341Z,100522.97
2017-11-15T22:09:59.773Z,100520.09
2017-11-15T22:12:26.205Z,100523.96
2017-11-15T22:14:52.594Z,100526.10
2017-11-15T22:17:18.981Z,100523.03
2017-11-15T22:19:45.376Z,100514.66
2017-11-15T22:22:11.733Z,100523.59
2017-11-15T22:24:38.112Z,100523.54
2017-11-15T22:27:04.521Z,100523.09
2017-11-15T22:29:30.853Z,100520.95
2017-11-15T22:31:57.209Z,100515.19
2017-11-15T22:34:23.620Z,100510.59
2017-11-15T22:36:49.957Z,100508.50
2017-11-15T22:39:16.357Z,100508.03
2017-11-15T22:41:42.802Z,100512.78
2017-11-15T22:44:09.185Z,100514.00
2017-11-15T22:46:35.517Z,100505.08
2017-11-15T22:49:01.898Z,100497.70
2017-11-15T22:51:28.344Z,100499.70
2017-11-15T22:53:54.694Z,100504.46
2017-11-15T22:56:21.082Z,100502.56
2017-11-15T22:58:47.606Z,100495.61
2017-11-15T23:01:13.936Z,100502.83
2017-11-15T23:03:40.347Z,100502.50
2017-11-15T23:06:06.698Z,100505.36
2017-11-15T23:08:33.092Z,100506.78
2017-11-15T23:10:59.461Z,100505.47
2017-11-15T23:13:25.829Z,100502.13
2017-11-15T23:15:52.229Z,100504.11
2017-11-15T23:18:18.654Z,100503.53
2017-11-15T23:20:44.976Z,100507.17
2017-11-15T23:23:11.506Z,100512.66
2017-11-15T23:25:37.903Z,100509.34
2017-11-15T23:28:04.361Z,100517.05
2017-11-15T23:30:30.695Z,100513.64
2017-11-15T23:32:57.153Z,100510.33
2017-11-15T23:35:23.524Z,100513.32
2017-11-15T23:37:49.962Z,100505.74
2017-11-15T23:40:16.333Z,100504.73
2017-11-15T23:42:42.687Z,100503.55
2017-11-15T23:45:09.067Z,100508.06
2017-11-15T23:47:35.495Z,100499.68
2017-11-15T23:50:01.881Z,100502.89
2017-11-15T23:52:28.297Z,100500.00
2017-11-15T23:54:54.877Z,100494.44
2017-11-15T23:57:21.257Z,100493.52
2017-11-15T23:59:47.638Z,100495.23
